Time;durP1;ratioP1;P1;durP2;ratioP2;P2;SDS_P1;SDS_P2;PMS_P1;PMS_P2;Temp;Humidity;BMP_temperature;BMP_pressure;BME280_temperature;BME280_humidity;BME280_pressure;Samples;Min_cycle;Max_cycle;Signal;HPM_P1;HPM_P2
2021/08/26 00:00:03;;;;;;;8.20;2.60;;;;;;;;;;4991605;28;20212;-71
2021/08/26 00:07:56;;;;;;;8.23;2.13;;;;;;;;;;4988666;28;20481;-71
2021/08/26 00:10:24;;;;;;;10.37;2.27;;;;;;;;;;4990042;28;20468;-71
2021/08/26 00:12:52;;;;;;;11.33;2.07;;;;;;;;;;4991318;28;20297;-71
2021/08/26 00:15:18;;;;;;;6.73;1.90;;;;;;;;;;4993013;28;21302;-71
2021/08/26 00:17:45;;;;;;;8.73;2.30;;;;;;;;;;4991073;28;20492;-71
2021/08/26 00:20:11;;;;;;;7.30;1.80;;;;;;;;;;4994175;28;20181;-71
2021/08/26 00:22:36;;;;;;;8.80;2.00;;;;;;;;;;4991143;28;20455;-71
2021/08/26 00:25:02;;;;;;;9.67;2.60;;;;;;;;;;4990338;28;20190;-70
2021/08/26 00:27:27;;;;;;;6.07;1.80;;;;;;;;;;4999166;28;20665;-71
2021/08/26 00:29:52;;;;;;;7.90;2.00;;;;;;;;;;4998297;28;20523;-71
2021/08/26 00:32:18;;;;;;;5.43;1.53;;;;;;;;;;4994201;28;20201;-71
2021/08/26 00:34:43;;;;;;;5.13;1.97;;;;;;;;;;4994172;28;20181;-71
2021/08/26 00:37:08;;;;;;;4.17;1.30;;;;;;;;;;4997502;28;20224;-70
2021/08/26 00:39:33;;;;;;;9.07;2.30;;;;;;;;;;4996715;28;20182;-71
2021/08/26 00:41:58;;;;;;;7.07;2.00;;;;;;;;;;4997691;28;20186;-71
2021/08/26 00:44:24;;;;;;;5.40;1.80;;;;;;;;;;4998690;28;20199;-71
2021/08/26 00:46:49;;;;;;;5.93;1.30;;;;;;;;;;4995384;28;20205;-71
2021/08/26 00:49:15;;;;;;;5.73;1.80;;;;;;;;;;4995784;28;20244;-71
2021/08/26 00:51:40;;;;;;;7.20;1.97;;;;;;;;;;4992792;28;20900;-71
2021/08/26 00:54:06;;;;;;;5.30;1.77;;;;;;;;;;4995201;28;20197;-71
2021/08/26 00:56:31;;;;;;;7.50;1.53;;;;;;;;;;4994934;28;20204;-71
2021/08/26 00:58:57;;;;;;;6.87;1.87;;;;;;;;;;4999328;28;20715;-71
2021/08/26 01:01:29;;;;;;;5.13;2.03;;;;;;;;;;4998916;28;20189;-71
2021/08/26 01:04:00;;;;;;;8.43;2.40;;;;;;;;;;4993957;28;20433;-71
2021/08/26 01:06:40;;;;;;;11.93;2.70;;;;;;;;;;5000924;28;20476;-71
2021/08/26 01:09:08;;;;;;;10.20;2.57;;;;;;;;;;4997554;28;20429;-70
2021/08/26 01:11:35;;;;;;;5.80;2.07;;;;;;;;;;4995861;28;20444;-71
2021/08/26 01:14:02;;;;;;;11.63;2.77;;;;;;;;;;5007820;28;20980;-71
2021/08/26 01:16:28;;;;;;;9.00;2.13;;;;;;;;;;4995569;28;20454;-71
2021/08/26 01:18:53;;;;;;;5.23;2.13;;;;;;;;;;4995445;28;20425;-71
2021/08/26 01:21:19;;;;;;;7.27;2.63;;;;;;;;;;4998273;28;20641;-71
2021/08/26 01:23:47;;;;;;;11.97;2.77;;;;;;;;;;4995545;28;20209;-71
2021/08/26 01:26:15;;;;;;;9.17;2.43;;;;;;;;;;4992842;28;20928;-70
2021/08/26 01:28:41;;;;;;;9.23;2.20;;;;;;;;;;4993965;28;20443;-71
2021/08/26 01:31:07;;;;;;;8.40;2.37;;;;;;;;;;4992534;28;20456;-71
2021/08/26 01:33:33;;;;;;;8.00;2.20;;;;;;;;;;4993881;28;20464;-71
2021/08/26 01:35:59;;;;;;;13.40;2.80;;;;;;;;;;4992746;28;20259;-71
2021/08/26 01:38:24;;;;;;;8.63;2.23;;;;;;;;;;4995379;28;20229;-71
2021/08/26 01:40:50;;;;;;;8.40;2.10;;;;;;;;;;4997378;28;20459;-71
2021/08/26 01:43:16;;;;;;;6.73;1.70;;;;;;;;;;4996423;28;20217;-71
2021/08/26 01:45:45;;;;;;;8.47;2.57;;;;;;;;;;4994764;28;20205;-71
2021/08/26 01:48:11;;;;;;;7.20;1.93;;;;;;;;;;5003613;28;20262;-72
2021/08/26 01:50:36;;;;;;;9.70;2.17;;;;;;;;;;4996649;28;20447;-71
2021/08/26 01:53:02;;;;;;;8.73;2.40;;;;;;;;;;4999699;28;20467;-71
2021/08/26 01:55:30;;;;;;;10.60;2.57;;;;;;;;;;4994388;28;20552;-70
2021/08/26 01:57:55;;;;;;;9.43;2.83;;;;;;;;;;4994543;28;20185;-71
2021/08/26 02:00:20;;;;;;;14.40;2.70;;;;;;;;;;4996824;28;20432;-71
2021/08/26 02:02:45;;;;;;;9.07;2.47;;;;;;;;;;4992841;28;20189;-71
2021/08/26 02:05:11;;;;;;;8.30;2.57;;;;;;;;;;4993018;28;20264;-70
2021/08/26 02:07:36;;;;;;;8.43;2.97;;;;;;;;;;4992661;28;20181;-71
2021/08/26 02:10:02;;;;;;;10.17;2.80;;;;;;;;;;4994447;28;20189;-71
2021/08/26 02:12:27;;;;;;;12.47;3.30;;;;;;;;;;4995145;28;20287;-71
2021/08/26 02:14:52;;;;;;;12.73;3.30;;;;;;;;;;4994480;28;20177;-71
2021/08/26 02:17:17;;;;;;;11.60;3.60;;;;;;;;;;4998996;28;20197;-72
2021/08/26 02:19:42;;;;;;;11.73;2.87;;;;;;;;;;4992721;28;20185;-71
2021/08/26 02:22:08;;;;;;;10.33;2.90;;;;;;;;;;4994130;28;21108;-72
2021/08/26 02:24:33;;;;;;;11.33;2.83;;;;;;;;;;4993539;28;20186;-72
2021/08/26 02:26:58;;;;;;;11.20;3.30;;;;;;;;;;4993206;28;20292;-70
2021/08/26 02:29:24;;;;;;;16.00;3.03;;;;;;;;;;4997831;28;20238;-69
2021/08/26 02:31:49;;;;;;;13.07;3.27;;;;;;;;;;4995298;28;20200;-69
2021/08/26 02:34:14;;;;;;;14.00;3.73;;;;;;;;;;4993031;28;20182;-69
2021/08/26 02:36:40;;;;;;;16.33;3.60;;;;;;;;;;4993362;28;20212;-69
2021/08/26 02:39:07;;;;;;;16.60;3.80;;;;;;;;;;4993808;28;20212;-69
2021/08/26 02:41:33;;;;;;;11.93;3.00;;;;;;;;;;4993162;28;20272;-70
2021/08/26 02:43:58;;;;;;;13.80;3.37;;;;;;;;;;4996810;28;20898;-71
2021/08/26 02:46:23;;;;;;;9.73;3.03;;;;;;;;;;4993646;28;20665;-70
2021/08/26 02:48:48;;;;;;;11.17;3.83;;;;;;;;;;4990872;28;20263;-71
2021/08/26 02:51:14;;;;;;;10.80;4.03;;;;;;;;;;4991744;28;20644;-71
2021/08/26 02:53:39;;;;;;;12.17;3.67;;;;;;;;;;4997181;28;20233;-70
2021/08/26 02:56:04;;;;;;;14.53;4.10;;;;;;;;;;4989590;28;21206;-70
2021/08/26 02:58:29;;;;;;;11.77;3.30;;;;;;;;;;4994924;28;20185;-71
2021/08/26 03:00:55;;;;;;;13.37;4.17;;;;;;;;;;4995833;28;20636;-70
2021/08/26 03:03:20;;;;;;;10.23;3.13;;;;;;;;;;4994687;28;20190;-70
2021/08/26 03:05:45;;;;;;;15.63;4.37;;;;;;;;;;4991330;28;20224;-70
2021/08/26 03:08:13;;;;;;;16.33;4.70;;;;;;;;;;4992763;28;20185;-71
2021/08/26 03:10:38;;;;;;;14.90;4.20;;;;;;;;;;4994471;28;20273;-70
2021/08/26 03:13:04;;;;;;;13.70;4.50;;;;;;;;;;4990468;28;20639;-70
2021/08/26 03:15:29;;;;;;;14.67;4.00;;;;;;;;;;4992591;28;20275;-69
2021/08/26 03:17:54;;;;;;;12.00;4.20;;;;;;;;;;4994841;28;20196;-70
2021/08/26 03:20:20;;;;;;;12.30;4.10;;;;;;;;;;4996992;28;20185;-70
2021/08/26 03:22:46;;;;;;;12.97;3.70;;;;;;;;;;4997625;28;20200;-70
2021/08/26 03:25:12;;;;;;;15.03;4.17;;;;;;;;;;4993077;28;20956;-70
2021/08/26 03:27:37;;;;;;;12.23;3.97;;;;;;;;;;4991498;28;20440;-70
2021/08/26 03:30:02;;;;;;;14.93;4.20;;;;;;;;;;4996414;28;20204;-70
2021/08/26 03:32:28;;;;;;;15.23;4.07;;;;;;;;;;4993599;28;20332;-71
2021/08/26 03:34:53;;;;;;;15.77;3.77;;;;;;;;;;4991854;28;20192;-70
2021/08/26 03:37:18;;;;;;;16.97;4.10;;;;;;;;;;4994483;28;20710;-71
2021/08/26 03:39:43;;;;;;;18.83;4.73;;;;;;;;;;4993272;28;20721;-71
2021/08/26 03:42:09;;;;;;;16.37;5.57;;;;;;;;;;4994944;28;20568;-71
2021/08/26 03:44:34;;;;;;;14.40;4.23;;;;;;;;;;4994817;28;20275;-71
2021/08/26 03:46:59;;;;;;;16.27;4.20;;;;;;;;;;4992030;28;20209;-70
2021/08/26 03:49:28;;;;;;;17.07;4.33;;;;;;;;;;4993547;28;20188;-70
2021/08/26 03:51:53;;;;;;;15.40;4.50;;;;;;;;;;4993024;28;20281;-70
2021/08/26 03:54:19;;;;;;;15.20;4.03;;;;;;;;;;4994840;28;20811;-71
2021/08/26 03:56:44;;;;;;;13.70;4.07;;;;;;;;;;4994063;28;20197;-71
2021/08/26 03:59:09;;;;;;;12.30;4.50;;;;;;;;;;4992984;28;20178;-70
2021/08/26 04:01:34;;;;;;;15.17;4.23;;;;;;;;;;4995667;28;20196;-71
2021/08/26 04:04:00;;;;;;;14.73;4.30;;;;;;;;;;4991544;28;20181;-70
2021/08/26 04:06:25;;;;;;;16.97;4.00;;;;;;;;;;4995110;28;20224;-70
2021/08/26 04:08:50;;;;;;;13.73;4.00;;;;;;;;;;4993308;28;20678;-70
2021/08/26 04:11:15;;;;;;;21.23;5.03;;;;;;;;;;4993480;28;20743;-70
2021/08/26 04:13:41;;;;;;;12.37;3.73;;;;;;;;;;4993213;28;20201;-71
2021/08/26 04:16:06;;;;;;;13.20;4.17;;;;;;;;;;4991031;28;20208;-71
2021/08/26 04:18:31;;;;;;;8.50;3.33;;;;;;;;;;4997913;28;20307;-71
2021/08/26 04:20:57;;;;;;;10.60;3.47;;;;;;;;;;4992204;28;20184;-70
2021/08/26 04:23:22;;;;;;;14.70;3.87;;;;;;;;;;4989694;28;20181;-70
2021/08/26 04:25:47;;;;;;;12.10;4.53;;;;;;;;;;4991912;28;20260;-70
2021/08/26 04:28:12;;;;;;;12.57;4.10;;;;;;;;;;4990686;28;20189;-70
2021/08/26 04:30:38;;;;;;;18.13;4.60;;;;;;;;;;4991916;28;20182;-70
2021/08/26 04:33:04;;;;;;;12.83;4.37;;;;;;;;;;4993819;28;20232;-70
2021/08/26 04:35:29;;;;;;;13.50;4.30;;;;;;;;;;4992024;28;20227;-70
2021/08/26 04:37:54;;;;;;;11.33;4.17;;;;;;;;;;4992604;28;20944;-70
2021/08/26 04:40:20;;;;;;;10.53;3.97;;;;;;;;;;4992357;28;20920;-71
2021/08/26 04:42:45;;;;;;;14.53;4.90;;;;;;;;;;4992916;28;20185;-71
2021/08/26 04:45:10;;;;;;;17.17;5.10;;;;;;;;;;4997432;28;20620;-72
2021/08/26 04:47:35;;;;;;;18.30;5.73;;;;;;;;;;4990113;28;20177;-71
2021/08/26 04:50:01;;;;;;;19.43;5.20;;;;;;;;;;4994842;28;20217;-70
2021/08/26 04:52:26;;;;;;;14.93;4.70;;;;;;;;;;4992038;28;20198;-71
2021/08/26 04:54:54;;;;;;;16.10;4.83;;;;;;;;;;4992589;28;20277;-70
2021/08/26 04:57:19;;;;;;;14.17;4.40;;;;;;;;;;4995766;28;20193;-71
2021/08/26 04:59:44;;;;;;;11.63;4.47;;;;;;;;;;4990062;28;20421;-71
2021/08/26 05:02:10;;;;;;;12.13;4.30;;;;;;;;;;4993385;28;20983;-70
2021/08/26 05:04:35;;;;;;;15.43;4.17;;;;;;;;;;4991258;28;20253;-70
2021/08/26 05:07:00;;;;;;;14.33;4.73;;;;;;;;;;4990399;28;20209;-71
2021/08/26 05:09:25;;;;;;;12.10;3.97;;;;;;;;;;4990486;28;20213;-70
2021/08/26 05:11:53;;;;;;;13.70;3.80;;;;;;;;;;4992044;28;20567;-70
2021/08/26 05:14:18;;;;;;;13.07;4.47;;;;;;;;;;4992919;28;20181;-71
2021/08/26 05:16:44;;;;;;;16.53;4.27;;;;;;;;;;4994333;28;20449;-71
2021/08/26 05:19:09;;;;;;;13.27;3.83;;;;;;;;;;4997345;28;20174;-70
2021/08/26 05:21:34;;;;;;;14.90;3.80;;;;;;;;;;4995247;28;20192;-71
2021/08/26 05:23:59;;;;;;;14.43;3.90;;;;;;;;;;4994072;28;20196;-71
2021/08/26 05:26:25;;;;;;;12.80;3.87;;;;;;;;;;4995296;28;20213;-71
2021/08/26 05:28:51;;;;;;;16.50;4.50;;;;;;;;;;4997335;28;20204;-71
2021/08/26 05:31:16;;;;;;;10.57;3.30;;;;;;;;;;4996237;28;20185;-70
2021/08/26 05:33:42;;;;;;;15.67;4.40;;;;;;;;;;4998757;28;20456;-70
2021/08/26 05:36:07;;;;;;;12.70;4.00;;;;;;;;;;4996738;28;20214;-70
2021/08/26 05:38:32;;;;;;;14.20;4.23;;;;;;;;;;4996977;28;20174;-70
2021/08/26 05:40:58;;;;;;;13.90;4.60;;;;;;;;;;4998108;28;20181;-70
2021/08/26 05:43:24;;;;;;;17.30;4.70;;;;;;;;;;4996814;28;20248;-70
2021/08/26 05:45:49;;;;;;;14.27;4.43;;;;;;;;;;4991702;28;20205;-71
2021/08/26 05:48:14;;;;;;;12.70;4.93;;;;;;;;;;4995916;28;20192;-71
2021/08/26 05:50:40;;;;;;;14.37;4.20;;;;;;;;;;4994350;28;20204;-70
2021/08/26 05:53:05;;;;;;;14.23;4.20;;;;;;;;;;4994133;28;20212;-70
2021/08/26 05:55:30;;;;;;;16.23;4.70;;;;;;;;;;4996237;28;20279;-70
2021/08/26 05:57:55;;;;;;;13.50;4.80;;;;;;;;;;4992179;28;20714;-71
2021/08/26 06:00:20;;;;;;;18.63;4.93;;;;;;;;;;4994599;28;20204;-70
2021/08/26 06:02:47;;;;;;;14.40;4.20;;;;;;;;;;4992118;28;20267;-71
2021/08/26 06:05:12;;;;;;;14.73;4.87;;;;;;;;;;4992874;28;20437;-70
2021/08/26 06:07:40;;;;;;;16.90;4.97;;;;;;;;;;4993937;28;20548;-71
2021/08/26 06:10:06;;;;;;;20.77;4.93;;;;;;;;;;4992976;28;20187;-71
2021/08/26 06:12:32;;;;;;;14.90;4.40;;;;;;;;;;4995347;28;20491;-71
2021/08/26 06:14:57;;;;;;;21.47;5.23;;;;;;;;;;4994926;28;20996;-71
2021/08/26 06:17:22;;;;;;;15.60;4.53;;;;;;;;;;4993436;28;20205;-71
2021/08/26 06:19:48;;;;;;;15.70;4.07;;;;;;;;;;4996386;28;20176;-70
2021/08/26 06:22:13;;;;;;;16.20;5.00;;;;;;;;;;4994457;28;20185;-70
2021/08/26 06:24:38;;;;;;;14.20;4.83;;;;;;;;;;5021015;22;20768;-74
2021/08/26 06:27:03;;;;;;;17.10;5.27;;;;;;;;;;5019963;28;20184;-74
2021/08/26 06:29:29;;;;;;;15.83;4.63;;;;;;;;;;5017574;28;20196;-75
2021/08/26 06:31:54;;;;;;;15.87;4.80;;;;;;;;;;5019146;28;20583;-74
2021/08/26 06:34:19;;;;;;;13.40;3.47;;;;;;;;;;5036548;28;20203;-74
2021/08/26 06:36:45;;;;;;;15.23;4.83;;;;;;;;;;5021118;28;20180;-75
2021/08/26 06:39:10;;;;;;;16.50;4.73;;;;;;;;;;5019358;28;20172;-74
2021/08/26 06:41:35;;;;;;;18.63;4.07;;;;;;;;;;5018921;28;20181;-75
2021/08/26 06:44:00;;;;;;;13.47;4.53;;;;;;;;;;5036569;28;20189;-75
2021/08/26 06:46:26;;;;;;;12.77;4.53;;;;;;;;;;5019336;28;20274;-75
2021/08/26 06:48:52;;;;;;;18.43;4.70;;;;;;;;;;5022087;28;20188;-74
2021/08/26 06:51:18;;;;;;;22.20;4.47;;;;;;;;;;5021612;28;20272;-75
2021/08/26 06:53:43;;;;;;;15.20;5.00;;;;;;;;;;5019946;28;20557;-74
2021/08/26 06:56:09;;;;;;;14.63;4.70;;;;;;;;;;5018409;28;20207;-74
2021/08/26 06:58:34;;;;;;;15.70;5.00;;;;;;;;;;5015483;28;20597;-74
2021/08/26 07:00:59;;;;;;;27.90;5.23;;;;;;;;;;5020569;28;20208;-74
2021/08/26 07:03:24;;;;;;;14.93;4.87;;;;;;;;;;5018740;28;20176;-75
2021/08/26 07:05:50;;;;;;;13.33;4.97;;;;;;;;;;5015748;28;20205;-74
2021/08/26 07:08:15;;;;;;;18.30;4.90;;;;;;;;;;5015295;28;20180;-75
2021/08/26 07:10:40;;;;;;;16.80;5.77;;;;;;;;;;5017860;28;20185;-74
2021/08/26 07:13:05;;;;;;;22.30;5.90;;;;;;;;;;5022318;28;20332;-74
2021/08/26 07:15:32;;;;;;;15.97;5.10;;;;;;;;;;5018157;28;20234;-75
2021/08/26 07:17:57;;;;;;;19.60;5.73;;;;;;;;;;5018145;28;20272;-74
2021/08/26 07:20:22;;;;;;;13.10;4.20;;;;;;;;;;5018314;28;20527;-74
2021/08/26 07:22:48;;;;;;;16.03;5.20;;;;;;;;;;5016458;28;20185;-74
2021/08/26 07:25:13;;;;;;;12.33;3.73;;;;;;;;;;5017717;28;20215;-74
2021/08/26 07:27:38;;;;;;;13.23;3.87;;;;;;;;;;5017990;28;20251;-75
2021/08/26 07:30:04;;;;;;;18.00;5.57;;;;;;;;;;5020001;28;20189;-75
2021/08/26 07:32:29;;;;;;;8.50;4.17;;;;;;;;;;5018781;28;20297;-75
2021/08/26 07:34:54;;;;;;;15.40;4.50;;;;;;;;;;5019470;28;20204;-75
2021/08/26 07:37:19;;;;;;;15.10;3.97;;;;;;;;;;5020215;28;20184;-74
2021/08/26 07:39:44;;;;;;;11.70;4.63;;;;;;;;;;5020057;28;20169;-74
2021/08/26 07:42:12;;;;;;;12.60;4.33;;;;;;;;;;5020623;28;20287;-75
2021/08/26 07:44:38;;;;;;;12.33;4.37;;;;;;;;;;5018023;28;20538;-74
2021/08/26 07:47:03;;;;;;;16.53;4.90;;;;;;;;;;5016819;28;20422;-75
2021/08/26 07:49:29;;;;;;;15.40;4.40;;;;;;;;;;5016548;28;20184;-74
2021/08/26 07:51:54;;;;;;;18.93;5.20;;;;;;;;;;5016575;28;20964;-74
2021/08/26 07:54:19;;;;;;;14.30;4.60;;;;;;;;;;5014788;28;20196;-74
2021/08/26 07:56:44;;;;;;;13.30;3.53;;;;;;;;;;5019796;28;20264;-75
2021/08/26 07:59:09;;;;;;;16.93;4.57;;;;;;;;;;5018526;28;20647;-74
2021/08/26 08:01:35;;;;;;;14.60;3.97;;;;;;;;;;5018748;28;20183;-74
2021/08/26 08:04:00;;;;;;;12.67;5.10;;;;;;;;;;5017820;28;20275;-74
2021/08/26 08:06:25;;;;;;;12.27;3.60;;;;;;;;;;5018087;28;20694;-74
2021/08/26 08:08:50;;;;;;;13.17;4.17;;;;;;;;;;5017260;28;21169;-74
2021/08/26 08:11:16;;;;;;;12.10;4.00;;;;;;;;;;5019943;28;20533;-74
2021/08/26 08:13:42;;;;;;;13.07;3.57;;;;;;;;;;5019542;28;20724;-74
2021/08/26 08:16:07;;;;;;;13.40;4.33;;;;;;;;;;5016499;28;20447;-75
2021/08/26 08:18:32;;;;;;;11.63;4.10;;;;;;;;;;5019197;28;20215;-74
2021/08/26 08:20:57;;;;;;;14.67;4.60;;;;;;;;;;5017149;28;20177;-74
2021/08/26 08:23:23;;;;;;;12.70;3.57;;;;;;;;;;5017290;28;20184;-74
2021/08/26 08:25:48;;;;;;;14.57;4.23;;;;;;;;;;5018293;28;20221;-75
2021/08/26 08:28:15;;;;;;;17.50;4.37;;;;;;;;;;5016995;28;20558;-74
2021/08/26 08:30:40;;;;;;;11.93;3.13;;;;;;;;;;5017606;28;20188;-74
2021/08/26 08:33:05;;;;;;;14.53;4.27;;;;;;;;;;5018636;28;20807;-74
2021/08/26 08:35:31;;;;;;;17.70;4.03;;;;;;;;;;5015993;28;20392;-74
2021/08/26 08:37:56;;;;;;;15.37;5.20;;;;;;;;;;5017619;28;20180;-75
2021/08/26 08:40:21;;;;;;;9.90;3.37;;;;;;;;;;5018920;28;20188;-74
2021/08/26 08:42:46;;;;;;;14.07;4.10;;;;;;;;;;5016447;28;20541;-75
2021/08/26 08:45:12;;;;;;;14.00;4.00;;;;;;;;;;5016122;28;20205;-74
2021/08/26 08:47:37;;;;;;;12.37;4.13;;;;;;;;;;5019458;28;20181;-75
2021/08/26 08:50:03;;;;;;;7.50;3.40;;;;;;;;;;5021716;28;20227;-74
2021/08/26 08:52:32;;;;;;;10.63;3.07;;;;;;;;;;5020537;28;20246;-74
2021/08/26 08:54:58;;;;;;;14.37;3.00;;;;;;;;;;5020916;28;20467;-74
2021/08/26 08:57:23;;;;;;;10.30;3.07;;;;;;;;;;5020345;28;20522;-74
2021/08/26 08:59:48;;;;;;;13.60;3.30;;;;;;;;;;5002301;28;20507;-75
2021/08/26 09:02:14;;;;;;;13.83;3.27;;;;;;;;;;5013607;28;20195;-74
2021/08/26 09:04:58;;;;;;;14.37;3.30;;;;;;;;;;5023519;28;21735;-74
2021/08/26 09:07:25;;;;;;;12.20;3.33;;;;;;;;;;5020525;28;20259;-74
2021/08/26 09:09:54;;;;;;;10.33;3.23;;;;;;;;;;5022679;28;20438;-74
2021/08/26 09:12:19;;;;;;;16.47;3.87;;;;;;;;;;5020140;28;20845;-74
2021/08/26 09:14:45;;;;;;;17.23;3.80;;;;;;;;;;5022393;28;20466;-74
2021/08/26 09:17:17;;;;;;;9.77;2.90;;;;;;;;;;5018412;28;20185;-74
2021/08/26 09:19:43;;;;;;;10.70;3.73;;;;;;;;;;5023250;28;20204;-74
2021/08/26 09:22:08;;;;;;;13.23;3.23;;;;;;;;;;5021548;28;20510;-74
2021/08/26 09:24:52;;;;;;;12.50;3.40;;;;;;;;;;5021373;28;20583;-74
2021/08/26 09:27:33;;;;;;;8.00;2.57;;;;;;;;;;5021869;28;20177;-74
2021/08/26 09:30:06;;;;;;;7.40;1.93;;;;;;;;;;5021835;28;20470;-75
2021/08/26 09:32:32;;;;;;;3.40;1.37;;;;;;;;;;5021906;28;20473;-74
2021/08/26 09:35:08;;;;;;;3.93;1.10;;;;;;;;;;5019662;28;20491;-74
2021/08/26 09:37:38;;;;;;;2.30;1.03;;;;;;;;;;5021324;28;20904;-74
2021/08/26 09:40:04;;;;;;;2.30;0.90;;;;;;;;;;5021234;28;20431;-74
2021/08/26 09:42:29;;;;;;;5.33;1.13;;;;;;;;;;5021178;28;20525;-74
2021/08/26 09:45:12;;;;;;;3.77;0.90;;;;;;;;;;5020485;28;21489;-74
2021/08/26 09:47:56;;;;;;;2.80;1.23;;;;;;;;;;5019688;28;20189;-74
2021/08/26 09:50:34;;;;;;;2.23;0.70;;;;;;;;;;5018100;28;20439;-74
2021/08/26 09:52:59;;;;;;;5.53;0.83;;;;;;;;;;5021738;28;20458;-74
2021/08/26 09:55:24;;;;;;;2.00;0.70;;;;;;;;;;5019371;28;20459;-74
2021/08/26 09:58:10;;;;;;;3.43;0.93;;;;;;;;;;5019161;28;20184;-75
2021/08/26 10:00:35;;;;;;;3.30;0.80;;;;;;;;;;5020768;28;20176;-74
2021/08/26 10:03:00;;;;;;;3.30;1.00;;;;;;;;;;5019310;28;20633;-75
2021/08/26 10:05:25;;;;;;;3.20;0.93;;;;;;;;;;5020784;28;20291;-74
2021/08/26 10:07:52;;;;;;;2.40;0.80;;;;;;;;;;5022738;28;20199;-75
2021/08/26 10:10:17;;;;;;;2.90;1.00;;;;;;;;;;5022340;28;20631;-74
2021/08/26 10:12:43;;;;;;;2.17;1.07;;;;;;;;;;5021503;28;20551;-74
2021/08/26 10:15:09;;;;;;;2.13;0.77;;;;;;;;;;5022184;28;20194;-74
2021/08/26 10:17:35;;;;;;;3.27;0.77;;;;;;;;;;5020535;28;20173;-74
2021/08/26 10:20:00;;;;;;;2.97;1.10;;;;;;;;;;5019898;28;20511;-74
2021/08/26 10:22:26;;;;;;;2.60;0.80;;;;;;;;;;5020475;28;20552;-74
2021/08/26 10:24:51;;;;;;;2.20;1.10;;;;;;;;;;5019506;28;20869;-74
2021/08/26 10:27:21;;;;;;;1.83;0.90;;;;;;;;;;5023113;28;20664;-74
2021/08/26 10:29:47;;;;;;;2.27;0.90;;;;;;;;;;5021584;28;20185;-74
2021/08/26 10:32:25;;;;;;;1.70;0.73;;;;;;;;;;5020378;28;20446;-74
2021/08/26 10:35:04;;;;;;;2.60;1.13;;;;;;;;;;5020599;28;20458;-74
2021/08/26 10:37:42;;;;;;;1.93;0.83;;;;;;;;;;5019699;28;20438;-74
2021/08/26 10:40:27;;;;;;;4.93;1.10;;;;;;;;;;5014812;28;20513;-75
2021/08/26 10:42:56;;;;;;;2.60;0.90;;;;;;;;;;5020252;28;20427;-74
2021/08/26 10:45:26;;;;;;;4.03;1.20;;;;;;;;;;5020453;28;20523;-75
2021/08/26 10:48:01;;;;;;;3.43;0.90;;;;;;;;;;5020363;28;20432;-75
2021/08/26 10:50:33;;;;;;;4.53;1.10;;;;;;;;;;5019091;28;20442;-74
2021/08/26 10:53:04;;;;;;;3.60;1.27;;;;;;;;;;5020859;28;20459;-75
2021/08/26 10:55:44;;;;;;;2.87;0.90;;;;;;;;;;5018593;28;20450;-74
2021/08/26 10:58:21;;;;;;;2.77;0.90;;;;;;;;;;5020251;28;20423;-75
2021/08/26 11:00:49;;;;;;;3.17;0.97;;;;;;;;;;5020896;28;20480;-74
2021/08/26 11:03:37;;;;;;;4.40;1.07;;;;;;;;;;5020538;28;20443;-75
2021/08/26 11:06:18;;;;;;;2.60;0.80;;;;;;;;;;5020041;28;20459;-75
2021/08/26 11:08:53;;;;;;;2.77;1.10;;;;;;;;;;5019346;28;20435;-74
2021/08/26 11:11:40;;;;;;;5.67;0.90;;;;;;;;;;5017881;28;20915;-75
2021/08/26 11:14:05;;;;;;;1.83;0.93;;;;;;;;;;5019581;28;20466;-75
2021/08/26 11:16:38;;;;;;;4.87;0.80;;;;;;;;;;5022480;28;20407;-73
2021/08/26 11:19:12;;;;;;;4.97;1.23;;;;;;;;;;5020374;28;20889;-73
2021/08/26 11:21:40;;;;;;;2.40;0.90;;;;;;;;;;5021507;28;20881;-73
2021/08/26 11:24:05;;;;;;;4.00;1.10;;;;;;;;;;5021533;28;20979;-74
2021/08/26 11:26:43;;;;;;;2.37;0.90;;;;;;;;;;5020484;28;20423;-75
2021/08/26 11:29:17;;;;;;;3.23;0.90;;;;;;;;;;5018922;28;20230;-75
2021/08/26 11:32:03;;;;;;;2.97;1.10;;;;;;;;;;5019557;28;20433;-74
2021/08/26 11:34:32;;;;;;;3.97;1.40;;;;;;;;;;5019350;28;20463;-73
2021/08/26 11:37:06;;;;;;;5.80;1.30;;;;;;;;;;5019803;28;20447;-73
2021/08/26 11:39:36;;;;;;;4.17;1.07;;;;;;;;;;5018806;28;20430;-74
2021/08/26 11:42:02;;;;;;;2.73;0.80;;;;;;;;;;5021412;28;20763;-73
2021/08/26 11:44:27;;;;;;;3.13;1.13;;;;;;;;;;5020866;28;20454;-73
2021/08/26 11:46:53;;;;;;;1.87;0.80;;;;;;;;;;5020422;28;20434;-74
2021/08/26 11:49:18;;;;;;;3.27;1.00;;;;;;;;;;5020251;28;20184;-73
2021/08/26 11:51:43;;;;;;;4.50;1.20;;;;;;;;;;5017319;28;21086;-73
2021/08/26 11:54:13;;;;;;;4.00;0.90;;;;;;;;;;5020088;28;20712;-73
2021/08/26 11:56:44;;;;;;;3.50;1.00;;;;;;;;;;5016790;28;20233;-74
2021/08/26 11:59:28;;;;;;;3.00;1.00;;;;;;;;;;5018776;28;20428;-74
2021/08/26 12:02:13;;;;;;;1.63;0.70;;;;;;;;;;5019068;28;20428;-74
2021/08/26 12:04:38;;;;;;;3.73;0.83;;;;;;;;;;5017879;28;21072;-73
2021/08/26 12:07:06;;;;;;;2.63;1.00;;;;;;;;;;5021418;28;20435;-73
2021/08/26 12:09:32;;;;;;;1.87;0.80;;;;;;;;;;5017594;28;20659;-73
2021/08/26 12:12:06;;;;;;;2.50;0.80;;;;;;;;;;5018080;28;20438;-73
2021/08/26 12:14:34;;;;;;;1.43;0.80;;;;;;;;;;5021327;28;20203;-74
2021/08/26 12:17:08;;;;;;;3.90;0.90;;;;;;;;;;5017937;28;20530;-74
2021/08/26 12:19:33;;;;;;;2.50;0.90;;;;;;;;;;5020840;28;20435;-74
2021/08/26 12:21:59;;;;;;;5.80;0.97;;;;;;;;;;5021197;28;20443;-74
2021/08/26 12:24:24;;;;;;;3.57;0.70;;;;;;;;;;5021963;28;20358;-74
2021/08/26 12:26:50;;;;;;;2.03;0.80;;;;;;;;;;5021432;28;20183;-74
2021/08/26 12:29:15;;;;;;;3.80;1.03;;;;;;;;;;5024819;28;20180;-73
2021/08/26 12:31:46;;;;;;;1.73;0.80;;;;;;;;;;5023515;28;20450;-74
2021/08/26 12:34:15;;;;;;;6.23;1.20;;;;;;;;;;5024506;28;20300;-74
2021/08/26 12:36:44;;;;;;;2.30;0.77;;;;;;;;;;5024691;28;20431;-74
2021/08/26 12:39:17;;;;;;;2.97;1.10;;;;;;;;;;5022600;28;20841;-73
2021/08/26 12:41:42;;;;;;;4.63;0.90;;;;;;;;;;5023591;28;20467;-73
2021/08/26 12:44:24;;;;;;;3.30;0.60;;;;;;;;;;5022107;28;21234;-74
2021/08/26 12:46:53;;;;;;;1.60;0.80;;;;;;;;;;5020027;28;20266;-74
2021/08/26 12:49:18;;;;;;;3.33;1.17;;;;;;;;;;5023179;28;20435;-73
2021/08/26 12:51:51;;;;;;;4.57;1.60;;;;;;;;;;5021360;28;20440;-74
2021/08/26 12:54:16;;;;;;;6.63;1.33;;;;;;;;;;5022852;28;20285;-74
2021/08/26 12:56:44;;;;;;;2.27;1.33;;;;;;;;;;5023063;28;20509;-74
2021/08/26 12:59:11;;;;;;;2.60;0.93;;;;;;;;;;5024102;28;20184;-74
2021/08/26 13:01:40;;;;;;;2.30;0.70;;;;;;;;;;5023104;28;20443;-74
2021/08/26 13:04:14;;;;;;;2.67;0.83;;;;;;;;;;5022082;28;20506;-74
2021/08/26 13:06:41;;;;;;;1.50;0.93;;;;;;;;;;5022075;28;20435;-74
2021/08/26 13:09:10;;;;;;;2.57;1.07;;;;;;;;;;5023710;28;20431;-74
2021/08/26 13:11:53;;;;;;;2.90;0.90;;;;;;;;;;5020596;28;20436;-74
2021/08/26 13:14:18;;;;;;;3.63;0.90;;;;;;;;;;5022506;28;20487;-73
2021/08/26 13:16:43;;;;;;;2.90;1.10;;;;;;;;;;5021887;28;20947;-74
2021/08/26 13:19:08;;;;;;;3.87;1.30;;;;;;;;;;5022393;28;20308;-74
2021/08/26 13:21:34;;;;;;;2.03;0.90;;;;;;;;;;5020575;28;20184;-73
2021/08/26 13:23:59;;;;;;;4.80;1.00;;;;;;;;;;5020719;28;20180;-73
2021/08/26 13:26:25;;;;;;;2.00;0.87;;;;;;;;;;5020345;28;20306;-74
2021/08/26 13:28:50;;;;;;;3.17;1.20;;;;;;;;;;5025098;28;20277;-74
2021/08/26 13:31:16;;;;;;;1.57;0.90;;;;;;;;;;5022803;28;20189;-74
2021/08/26 13:33:41;;;;;;;2.83;0.93;;;;;;;;;;5020133;28;20665;-73
2021/08/26 13:36:07;;;;;;;2.20;0.80;;;;;;;;;;5019509;28;20208;-73
2021/08/26 13:38:32;;;;;;;2.50;0.90;;;;;;;;;;5021485;28;20220;-74
2021/08/26 13:40:58;;;;;;;3.17;1.30;;;;;;;;;;5021766;28;20268;-74
2021/08/26 13:43:23;;;;;;;1.80;1.07;;;;;;;;;;5022554;28;20183;-74
2021/08/26 13:45:48;;;;;;;5.33;1.30;;;;;;;;;;5019986;28;20208;-74
2021/08/26 13:48:13;;;;;;;2.30;0.90;;;;;;;;;;5021356;28;20191;-74
2021/08/26 13:50:39;;;;;;;3.27;1.10;;;;;;;;;;5022105;28;21115;-73
2021/08/26 13:53:04;;;;;;;3.67;0.93;;;;;;;;;;5021369;28;20192;-73
2021/08/26 13:55:32;;;;;;;2.00;1.00;;;;;;;;;;5021064;28;20651;-73
2021/08/26 13:57:58;;;;;;;1.53;0.80;;;;;;;;;;5020362;28;20219;-74
2021/08/26 14:00:25;;;;;;;4.87;1.10;;;;;;;;;;5018452;28;20435;-74
2021/08/26 14:02:50;;;;;;;3.77;1.10;;;;;;;;;;5022263;28;20677;-74
2021/08/26 14:05:15;;;;;;;1.60;0.90;;;;;;;;;;5018811;28;20479;-74
2021/08/26 14:07:40;;;;;;;1.80;0.97;;;;;;;;;;5021912;28;20768;-74
2021/08/26 14:10:06;;;;;;;3.30;0.83;;;;;;;;;;5021434;28;20537;-74
2021/08/26 14:12:31;;;;;;;2.03;1.17;;;;;;;;;;5021742;28;20697;-74
2021/08/26 14:14:56;;;;;;;2.80;0.80;;;;;;;;;;5022336;28;20194;-73
2021/08/26 14:17:22;;;;;;;4.30;1.10;;;;;;;;;;5021435;28;20211;-73
2021/08/26 14:19:52;;;;;;;2.73;0.83;;;;;;;;;;5021135;28;20210;-74
2021/08/26 14:22:17;;;;;;;3.60;1.27;;;;;;;;;;5021868;28;20180;-73
2021/08/26 14:24:42;;;;;;;2.93;1.23;;;;;;;;;;5019927;28;20462;-74
2021/08/26 14:27:08;;;;;;;6.83;0.97;;;;;;;;;;5021533;28;20177;-74
2021/08/26 14:29:33;;;;;;;3.83;1.43;;;;;;;;;;5020160;28;20173;-73
2021/08/26 14:31:58;;;;;;;1.63;0.90;;;;;;;;;;5020360;28;20255;-74
2021/08/26 14:34:24;;;;;;;5.17;1.30;;;;;;;;;;5020498;28;20213;-74
2021/08/26 14:36:50;;;;;;;4.47;1.40;;;;;;;;;;5020197;28;20168;-74
2021/08/26 14:39:15;;;;;;;5.73;1.03;;;;;;;;;;5019875;28;20216;-74